createdAt,value
2018-05-10T00:00:37.079Z,13.90
2018-05-10T00:03:41.182Z,13.90
2018-05-10T00:06:44.507Z,13.90
2018-05-10T00:09:47.828Z,14.00
2018-05-10T00:12:51.136Z,14.00
2018-05-10T00:15:54.501Z,14.00
2018-05-10T00:18:57.852Z,14.10
2018-05-10T00:22:01.338Z,14.00
2018-05-10T00:25:04.693Z,14.00
2018-05-10T00:28:08.228Z,14.10
2018-05-10T00:31:12.528Z,14.00
2018-05-10T00:34:15.845Z,14.00
2018-05-10T00:37:19.176Z,14.00
2018-05-10T00:40:23.249Z,14.10
2018-05-10T00:43:27.245Z,14.00
2018-05-10T00:46:30.557Z,14.00
2018-05-10T00:49:33.884Z,14.00
2018-05-10T00:52:37.217Z,14.00
2018-05-10T00:55:40.545Z,14.00
2018-05-10T00:58:43.866Z,13.90
2018-05-10T01:01:47.173Z,14.00
2018-05-10T01:04:50.552Z,13.90
2018-05-10T01:07:53.865Z,13.90
2018-05-10T01:10:57.174Z,13.80
2018-05-10T01:14:01.267Z,13.80
2018-05-10T01:17:04.574Z,13.80
2018-05-10T01:20:07.920Z,13.80
2018-05-10T01:23:11.257Z,13.80
2018-05-10T01:26:14.570Z,13.80
2018-05-10T01:29:18.662Z,13.80
2018-05-10T01:32:21.990Z,13.80
2018-05-10T01:35:43.905Z,13.70
2018-05-10T01:38:47.224Z,13.70
2018-05-10T01:41:51.323Z,13.80
2018-05-10T01:44:54.638Z,13.70
2018-05-10T01:47:58.729Z,13.70
2018-05-10T01:51:02.037Z,13.70
2018-05-10T01:54:06.124Z,13.70
2018-05-10T01:57:09.440Z,13.60
2018-05-10T02:00:12.766Z,13.70
2018-05-10T02:03:16.088Z,13.70
2018-05-10T02:06:19.401Z,13.70
2018-05-10T02:09:22.733Z,13.70
2018-05-10T02:12:26.820Z,13.70
2018-05-10T02:15:30.148Z,13.70
2018-05-10T02:18:34.232Z,13.70
2018-05-10T02:21:37.565Z,13.70
2018-05-10T02:24:41.641Z,13.70
2018-05-10T02:27:44.965Z,13.60
2018-05-10T02:30:49.047Z,13.70
2018-05-10T02:33:52.372Z,13.60
2018-05-10T02:36:55.701Z,13.70
2018-05-10T02:39:59.026Z,13.70
2018-05-10T02:43:02.357Z,13.60
2018-05-10T02:46:05.684Z,13.60
2018-05-10T02:49:08.993Z,13.50
2018-05-10T02:52:12.309Z,13.50
2018-05-10T02:55:15.618Z,13.50
2018-05-10T02:58:18.938Z,13.40
2018-05-10T03:01:22.254Z,13.40
2018-05-10T03:04:26.350Z,13.40
2018-05-10T03:07:29.681Z,13.40
2018-05-10T03:10:32.986Z,13.40
2018-05-10T03:13:36.313Z,13.30
2018-05-10T03:16:39.645Z,13.30
2018-05-10T03:19:42.972Z,13.30
2018-05-10T03:22:46.278Z,13.20
2018-05-10T03:25:49.614Z,13.20
2018-05-10T03:28:52.920Z,13.10
2018-05-10T03:31:56.246Z,13.10
2018-05-10T03:35:00.323Z,13.00
2018-05-10T03:38:03.661Z,13.00
2018-05-10T03:41:07.750Z,13.10
2018-05-10T03:44:11.076Z,13.10
2018-05-10T03:47:14.419Z,13.00
2018-05-10T03:50:17.725Z,13.10
2018-05-10T03:53:21.075Z,13.00
2018-05-10T03:56:24.402Z,13.00
2018-05-10T03:59:27.729Z,13.00
2018-05-10T04:06:48.953Z,13.00
2018-05-10T04:10:09.865Z,12.90
2018-05-10T04:13:13.232Z,12.90
2018-05-10T04:16:16.538Z,12.80
2018-05-10T04:19:19.872Z,12.80
2018-05-10T04:22:23.188Z,12.80
2018-05-10T04:25:27.324Z,12.90
2018-05-10T04:28:30.877Z,12.90
2018-05-10T04:31:35.111Z,12.90
2018-05-10T04:34:38.457Z,12.90
2018-05-10T04:37:42.613Z,13.00
2018-05-10T04:40:45.945Z,13.00
2018-05-10T04:43:49.484Z,13.00
2018-05-10T04:46:52.852Z,13.00
2018-05-10T04:49:56.211Z,13.00
2018-05-10T04:52:59.520Z,13.00
2018-05-10T04:56:03.634Z,13.00
2018-05-10T04:59:07.730Z,13.10
2018-05-10T05:02:11.062Z,13.10
2018-05-10T05:05:14.393Z,13.10
2018-05-10T05:08:17.726Z,13.20
2018-05-10T05:11:21.046Z,13.20
2018-05-10T05:14:25.214Z,13.30
2018-05-10T05:17:28.614Z,13.20
2018-05-10T05:20:32.031Z,13.30
2018-05-10T05:23:35.680Z,13.40
2018-05-10T05:26:39.081Z,13.50
2018-05-10T05:29:42.555Z,13.50
2018-05-10T05:32:46.700Z,13.60
2018-05-10T05:35:49.974Z,13.60
2018-05-10T05:38:54.009Z,13.70
2018-05-10T05:41:57.313Z,13.70
2018-05-10T05:45:00.650Z,13.80
2018-05-10T05:48:03.969Z,13.90
2018-05-10T05:51:08.106Z,14.10
2018-05-10T05:54:11.402Z,14.10
2018-05-10T05:57:14.721Z,14.10
2018-05-10T06:00:18.048Z,14.20
2018-05-10T06:03:21.353Z,14.20
2018-05-10T06:06:24.677Z,14.20
2018-05-10T06:09:28.749Z,14.20
2018-05-10T06:12:32.073Z,14.20
2018-05-10T06:15:35.454Z,14.30
2018-05-10T06:18:38.722Z,14.40
2018-05-10T06:21:42.053Z,14.50
2018-05-10T06:24:45.391Z,14.50
2018-05-10T06:27:48.712Z,14.50
2018-05-10T06:30:52.017Z,14.60
2018-05-10T06:33:55.375Z,14.80
2018-05-10T06:36:59.447Z,15.30
2018-05-10T06:40:02.785Z,15.30
2018-05-10T06:43:06.101Z,15.50
2018-05-10T06:46:09.434Z,15.80
2018-05-10T06:49:12.765Z,16.00
2018-05-10T06:52:16.833Z,16.30
2018-05-10T06:55:20.186Z,16.30
2018-05-10T06:58:23.493Z,16.50
2018-05-10T07:01:26.826Z,16.60
2018-05-10T07:04:30.150Z,16.80
2018-05-10T07:07:33.471Z,16.90
2018-05-10T07:10:36.777Z,17.10
2018-05-10T07:13:40.101Z,17.20
2018-05-10T07:16:43.422Z,17.30
2018-05-10T07:19:46.750Z,17.50
2018-05-10T07:22:50.075Z,17.60
2018-05-10T07:25:53.385Z,17.60
2018-05-10T07:28:56.705Z,17.70
2018-05-10T07:32:00.037Z,17.80
2018-05-10T07:35:04.108Z,18.10
2018-05-10T07:38:07.430Z,18.10
2018-05-10T07:41:10.751Z,18.30
2018-05-10T07:44:14.063Z,18.30
2018-05-10T07:47:17.435Z,18.40
2018-05-10T07:50:20.729Z,18.40
2018-05-10T07:53:24.817Z,18.30
2018-05-10T07:56:28.121Z,18.30
2018-05-10T07:59:31.442Z,18.30
2018-05-10T08:02:35.529Z,18.30
2018-05-10T08:05:38.829Z,18.30
2018-05-10T08:08:42.147Z,18.30
2018-05-10T08:11:45.494Z,18.30
2018-05-10T08:14:48.792Z,18.30
2018-05-10T08:17:52.106Z,18.30
2018-05-10T08:20:55.410Z,18.30
2018-05-10T08:23:58.732Z,18.30
2018-05-10T08:27:02.817Z,18.30
2018-05-10T08:30:06.129Z,18.30
2018-05-10T08:33:09.449Z,18.40
2018-05-10T08:36:12.769Z,18.50
2018-05-10T08:39:16.074Z,18.60
2018-05-10T08:42:19.397Z,18.60
2018-05-10T08:45:22.693Z,18.60
2018-05-10T08:48:26.015Z,18.60
2018-05-10T08:51:30.191Z,18.60
2018-05-10T08:54:33.437Z,18.60
2018-05-10T08:57:37.524Z,18.60
2018-05-10T09:00:40.845Z,18.50
2018-05-10T09:03:44.961Z,18.50
2018-05-10T09:06:49.033Z,18.50
2018-05-10T09:09:52.352Z,18.50
2018-05-10T09:12:55.675Z,18.60
2018-05-10T09:15:58.991Z,18.50
2018-05-10T09:19:02.309Z,18.50
2018-05-10T09:22:05.614Z,18.60
2018-05-10T09:25:08.929Z,18.60
2018-05-10T09:28:12.242Z,18.70
2018-05-10T09:31:16.329Z,18.80
2018-05-10T09:34:19.661Z,18.80
2018-05-10T09:37:23.729Z,18.90
2018-05-10T09:40:27.058Z,18.90
2018-05-10T09:43:30.365Z,19.00
2018-05-10T09:46:34.449Z,19.20
2018-05-10T09:49:37.769Z,19.10
2018-05-10T09:52:41.862Z,19.40
2018-05-10T09:55:45.173Z,19.50
2018-05-10T09:58:48.496Z,19.70
2018-05-10T10:01:51.801Z,19.80
2018-05-10T10:04:55.125Z,20.00
2018-05-10T10:07:58.461Z,20.10
2018-05-10T10:11:01.855Z,20.20
2018-05-10T10:14:05.101Z,20.30
2018-05-10T10:17:08.477Z,20.40
2018-05-10T10:20:11.734Z,20.60
2018-05-10T10:23:15.038Z,20.80
2018-05-10T10:26:18.358Z,21.10
2018-05-10T10:29:22.450Z,21.60
2018-05-10T10:32:25.867Z,21.60
2018-05-10T10:35:29.119Z,21.80
2018-05-10T10:38:32.438Z,21.90
2018-05-10T10:41:35.757Z,22.10
2018-05-10T10:44:39.845Z,22.70
2018-05-10T10:47:43.164Z,22.60
2018-05-10T10:50:47.365Z,23.10
2018-05-10T10:53:50.778Z,23.10
2018-05-10T10:56:54.009Z,23.30
2018-05-10T10:59:57.437Z,23.30
2018-05-10T11:03:00.648Z,23.40
2018-05-10T11:06:03.970Z,23.40
2018-05-10T11:09:08.164Z,23.50
2018-05-10T11:12:11.381Z,23.50
2018-05-10T11:15:15.477Z,23.70
2018-05-10T11:18:18.801Z,23.60
2018-05-10T11:21:22.122Z,23.70
2018-05-10T11:24:25.429Z,23.70
2018-05-10T11:27:28.750Z,23.70
2018-05-10T11:30:32.057Z,23.80
2018-05-10T11:33:35.378Z,23.80
2018-05-10T11:36:39.449Z,23.60
2018-05-10T11:39:42.769Z,23.60
2018-05-10T11:42:46.870Z,23.30
2018-05-10T11:45:50.178Z,23.30
2018-05-10T11:48:53.503Z,23.30
2018-05-10T11:51:56.823Z,23.20
2018-05-10T11:55:00.121Z,23.00
2018-05-10T11:58:03.445Z,22.90
2018-05-10T12:01:06.773Z,22.70
2018-05-10T12:04:10.838Z,22.40
2018-05-10T12:07:14.159Z,22.40
2018-05-10T12:10:17.461Z,22.30
2018-05-10T12:13:20.783Z,22.30
2018-05-10T12:16:24.873Z,22.40
2018-05-10T12:19:28.194Z,22.40
2018-05-10T12:22:32.302Z,22.30
2018-05-10T12:25:36.426Z,22.20
2018-05-10T12:28:39.697Z,22.20
2018-05-10T12:31:43.006Z,22.00
2018-05-10T12:34:47.097Z,21.60
2018-05-10T12:37:50.405Z,21.60
2018-05-10T12:40:53.732Z,21.50
2018-05-10T12:43:57.044Z,21.20
2018-05-10T12:47:00.369Z,20.80
2018-05-10T12:50:03.697Z,20.30
2018-05-10T12:53:07.005Z,19.90
2018-05-10T12:56:11.147Z,19.60
2018-05-10T12:59:14.425Z,19.50
2018-05-10T13:02:18.512Z,19.40
2018-05-10T13:05:21.817Z,19.40
2018-05-10T13:08:25.185Z,19.30
2018-05-10T13:11:28.469Z,19.30
2018-05-10T13:14:31.794Z,19.40
2018-05-10T13:17:35.096Z,19.40
2018-05-10T13:20:38.429Z,19.40
2018-05-10T13:23:41.757Z,19.50
2018-05-10T13:26:45.093Z,19.50
2018-05-10T13:29:48.397Z,19.60
2018-05-10T13:32:52.481Z,19.70
2018-05-10T13:35:55.802Z,19.70
2018-05-10T13:38:59.880Z,19.70
2018-05-10T13:42:03.205Z,19.70
2018-05-10T13:45:06.529Z,19.70
2018-05-10T13:48:10.602Z,19.20
2018-05-10T13:51:13.933Z,19.20
2018-05-10T13:54:18.008Z,18.90
2018-05-10T13:57:21.338Z,18.80
2018-05-10T14:00:25.410Z,18.60
2018-05-10T14:03:28.728Z,18.60
2018-05-10T14:06:32.035Z,18.60
2018-05-10T14:09:35.365Z,18.50
2018-05-10T14:12:38.703Z,18.70
2018-05-10T14:15:42.025Z,18.70
2018-05-10T14:18:45.351Z,18.70
2018-05-10T14:21:48.673Z,18.50
2018-05-10T14:24:51.993Z,18.40
2018-05-10T14:27:55.314Z,18.20
2018-05-10T14:30:58.641Z,18.00
2018-05-10T14:34:01.965Z,17.90
2018-05-10T14:37:05.321Z,17.80
2018-05-10T14:40:08.621Z,17.60
2018-05-10T14:43:11.941Z,17.50
2018-05-10T14:46:15.269Z,17.40
2018-05-10T14:49:18.600Z,17.30
2018-05-10T14:52:22.674Z,17.10
2018-05-10T14:55:25.993Z,17.10
2018-05-10T14:58:29.313Z,17.10
2018-05-10T15:01:33.405Z,17.00
2018-05-10T15:04:36.709Z,17.00
2018-05-10T15:07:40.029Z,17.00
2018-05-10T15:10:44.102Z,17.00
2018-05-10T15:13:47.425Z,16.90
2018-05-10T15:16:51.513Z,17.00
2018-05-10T15:19:54.834Z,17.00
2018-05-10T15:22:58.909Z,17.00
2018-05-10T15:26:02.241Z,17.00
2018-05-10T15:29:06.322Z,17.10
2018-05-10T15:32:09.657Z,17.10
2018-05-10T15:35:13.729Z,17.00
2018-05-10T15:38:17.098Z,16.90
2018-05-10T15:41:20.408Z,16.90
2018-05-10T15:44:23.729Z,16.80
2018-05-10T15:47:27.053Z,16.80
2018-05-10T15:50:30.381Z,16.60
2018-05-10T15:53:33.688Z,16.60
2018-05-10T15:56:37.009Z,16.60
2018-05-10T15:59:40.357Z,16.60
2018-05-10T16:02:44.430Z,16.50
2018-05-10T16:05:47.753Z,16.50
2018-05-10T16:08:51.760Z,16.50
2018-05-10T16:11:55.072Z,16.50
2018-05-10T16:14:59.161Z,16.40
2018-05-10T16:18:03.014Z,16.40
2018-05-10T16:21:06.333Z,16.50
2018-05-10T16:24:10.415Z,16.40
2018-05-10T16:27:14.514Z,16.40
2018-05-10T16:30:17.865Z,16.40
2018-05-10T16:33:21.177Z,16.30
2018-05-10T16:36:24.497Z,16.30
2018-05-10T16:39:27.895Z,16.20
2018-05-10T16:42:31.905Z,16.10
2018-05-10T16:45:35.213Z,16.10
2018-05-10T16:48:39.303Z,16.00
2018-05-10T16:51:42.634Z,16.00
2018-05-10T16:54:46.723Z,15.70
2018-05-10T16:57:50.030Z,15.70
2018-05-10T17:00:53.378Z,15.60
2018-05-10T17:03:56.694Z,15.60
2018-05-10T17:07:01.081Z,15.40
2018-05-10T17:10:04.649Z,15.40
2018-05-10T17:13:07.973Z,15.30
2018-05-10T17:16:11.314Z,15.30
2018-05-10T17:19:14.622Z,15.20
2018-05-10T17:22:17.950Z,15.20
2018-05-10T17:25:22.021Z,14.90
2018-05-10T17:28:26.041Z,14.90
2018-05-10T17:31:30.273Z,14.80
2018-05-10T17:34:33.616Z,14.80
2018-05-10T17:37:36.913Z,14.70
2018-05-10T17:40:40.237Z,14.50
2018-05-10T17:43:43.569Z,14.40
2018-05-10T17:46:46.897Z,14.40
2018-05-10T17:49:50.201Z,14.30
2018-05-10T17:52:53.516Z,14.30
2018-05-10T17:55:56.833Z,14.30
2018-05-10T17:59:00.154Z,14.40
2018-05-10T18:02:04.246Z,14.40
2018-05-10T18:05:07.547Z,14.30
2018-05-10T18:08:10.869Z,14.30
2018-05-10T18:11:14.189Z,14.30
2018-05-10T18:14:17.505Z,14.30
2018-05-10T18:17:20.829Z,14.20
2018-05-10T18:20:24.133Z,14.10
2018-05-10T18:23:27.512Z,14.10
2018-05-10T18:26:30.766Z,14.00
2018-05-10T18:29:34.090Z,14.00
2018-05-10T18:32:37.419Z,13.90
2018-05-10T18:35:40.746Z,13.80
2018-05-10T18:38:44.841Z,13.60
2018-05-10T18:41:48.157Z,13.60
2018-05-10T18:44:52.245Z,13.50
2018-05-10T18:47:55.554Z,13.50
2018-05-10T18:50:59.645Z,13.40
2018-05-10T18:54:02.961Z,13.40
2018-05-10T18:57:06.289Z,13.40
2018-05-10T19:00:09.597Z,13.30
2018-05-10T19:03:12.939Z,13.30
2018-05-10T19:06:16.254Z,13.20
2018-05-10T19:09:20.346Z,13.00
2018-05-10T19:12:23.653Z,13.00
2018-05-10T19:15:27.053Z,13.00
2018-05-10T19:18:30.322Z,12.90
2018-05-10T19:21:33.637Z,12.80
2018-05-10T19:24:36.971Z,12.80
2018-05-10T19:27:40.329Z,12.80
2018-05-10T19:30:43.653Z,12.70
2018-05-10T19:33:47.745Z,12.70
2018-05-10T19:36:51.152Z,12.70
2018-05-10T19:39:54.392Z,12.60
2018-05-10T19:42:57.718Z,12.60
2018-05-10T19:46:01.040Z,12.60
2018-05-10T19:49:04.365Z,12.50
2018-05-10T19:52:07.686Z,12.50
2018-05-10T19:55:10.991Z,12.40
2018-05-10T19:58:14.319Z,12.40
2018-05-10T20:01:17.627Z,12.30
2018-05-10T20:04:21.717Z,12.20
2018-05-10T20:07:25.045Z,12.20
2018-05-10T20:10:29.109Z,12.10
2018-05-10T20:13:32.429Z,12.10
2018-05-10T20:16:35.754Z,12.10
2018-05-10T20:19:39.825Z,12.10
2018-05-10T20:22:43.149Z,12.00
2018-05-10T20:25:46.469Z,12.00
2018-05-10T20:28:50.537Z,11.90
2018-05-10T20:31:53.858Z,11.90
2018-05-10T20:34:57.172Z,11.80
2018-05-10T20:38:01.265Z,11.70
2018-05-10T20:41:05.349Z,11.70
2018-05-10T20:44:08.689Z,11.70
2018-05-10T20:47:12.756Z,11.60
2018-05-10T20:50:16.073Z,11.60
2018-05-10T20:53:19.374Z,11.60
2018-05-10T20:56:22.693Z,11.60
2018-05-10T20:59:26.770Z,11.60
2018-05-10T21:02:30.081Z,11.50
2018-05-10T21:05:33.400Z,11.60
2018-05-10T21:08:37.499Z,11.50
2018-05-10T21:11:40.825Z,11.50
2018-05-10T21:14:44.889Z,11.40
2018-05-10T21:17:48.214Z,11.40
2018-05-10T21:20:51.518Z,11.50
2018-05-10T21:23:55.616Z,11.40
2018-05-10T21:26:58.918Z,11.40
2018-05-10T21:30:02.237Z,11.50
2018-05-10T21:33:06.317Z,11.50
2018-05-10T21:36:09.633Z,11.50
2018-05-10T21:39:12.951Z,11.60
2018-05-10T21:42:16.286Z,11.60
2018-05-10T21:45:19.590Z,11.60
2018-05-10T21:48:22.909Z,11.60
2018-05-10T21:51:26.238Z,11.60
2018-05-10T21:54:29.542Z,11.60
2018-05-10T21:57:32.865Z,11.70
2018-05-10T22:00:36.234Z,11.70
2018-05-10T22:03:39.561Z,11.70
2018-05-10T22:06:42.939Z,11.60
2018-05-10T22:09:46.197Z,11.60
2018-05-10T22:12:49.527Z,11.60
2018-05-10T22:15:52.852Z,11.60
2018-05-10T22:18:56.161Z,11.60
2018-05-10T22:21:59.477Z,11.60
2018-05-10T22:25:02.805Z,11.60
2018-05-10T22:28:06.138Z,11.60
2018-05-10T22:31:09.458Z,11.50
2018-05-10T22:34:12.761Z,11.50
2018-05-10T22:37:16.104Z,11.50
2018-05-10T22:40:19.408Z,11.60
2018-05-10T22:43:22.726Z,11.60
2018-05-10T22:46:26.047Z,11.60
2018-05-10T22:49:29.353Z,11.60
2018-05-10T22:52:32.677Z,11.50
2018-05-10T22:55:35.980Z,11.50
2018-05-10T22:58:39.301Z,11.50
2018-05-10T23:01:42.609Z,11.60
2018-05-10T23:04:45.938Z,11.50
2018-05-10T23:07:50.009Z,11.50
2018-05-10T23:10:53.333Z,11.50
2018-05-10T23:13:56.637Z,11.50
2018-05-10T23:16:59.963Z,11.50
2018-05-10T23:20:03.291Z,11.50
2018-05-10T23:23:06.593Z,11.50
2018-05-10T23:26:09.913Z,11.50
2018-05-10T23:29:13.246Z,11.50
2018-05-10T23:32:17.309Z,11.50
2018-05-10T23:35:20.633Z,11.50
2018-05-10T23:38:23.945Z,11.50
2018-05-10T23:41:28.057Z,11.50
2018-05-10T23:44:31.364Z,11.50
2018-05-10T23:47:35.452Z,11.50
2018-05-10T23:50:38.776Z,11.50
2018-05-10T23:53:42.077Z,11.50
2018-05-10T23:56:45.405Z,11.50
2018-05-10T23:59:48.733Z,11.50
